sensor_id;sensor_type;location;lat;lon;timestamp;P1;durP1;ratioP1;P2;durP2;ratioP2
15814;SDS011;8008;50.024;8.172;2023-05-20T03:02:37;3.50;;;2.25;;
15814;SDS011;8008;50.024;8.172;2023-05-20T03:05:06;3.20;;;2.40;;
15814;SDS011;8008;50.024;8.172;2023-05-20T03:07:35;4.18;;;2.47;;
15814;SDS011;8008;50.024;8.172;2023-05-20T03:10:05;5.50;;;2.15;;
15814;SDS011;8008;50.024;8.172;2023-05-20T03:12:37;3.78;;;2.40;;
15814;SDS011;8008;50.024;8.172;2023-05-20T03:17:40;2.72;;;2.45;;
15814;SDS011;8008;50.024;8.172;2023-05-20T03:20:08;2.90;;;2.60;;
15814;SDS011;8008;50.024;8.172;2023-05-20T03:22:38;3.78;;;2.45;;
15814;SDS011;8008;50.024;8.172;2023-05-20T03:25:07;2.65;;;2.20;;
15814;SDS011;8008;50.024;8.172;2023-05-20T03:27:35;5.85;;;2.47;;
15814;SDS011;8008;50.024;8.172;2023-05-20T03:30:04;2.70;;;2.38;;
15814;SDS011;8008;50.024;8.172;2023-05-20T03:32:33;3.10;;;2.50;;
15814;SDS011;8008;50.024;8.172;2023-05-20T03:35:04;4.22;;;2.42;;
15814;SDS011;8008;50.024;8.172;2023-05-20T03:37:33;2.88;;;2.38;;
15814;SDS011;8008;50.024;8.172;2023-05-20T03:40:01;2.53;;;2.33;;
15814;SDS011;8008;50.024;8.172;2023-05-20T03:42:32;2.40;;;2.20;;
15814;SDS011;8008;50.024;8.172;2023-05-20T03:45:00;2.70;;;2.45;;
15814;SDS011;8008;50.024;8.172;2023-05-20T03:47:32;3.75;;;2.60;;
15814;SDS011;8008;50.024;8.172;2023-05-20T03:50:00;2.70;;;2.50;;
15814;SDS011;8008;50.024;8.172;2023-05-20T03:52:31;3.30;;;2.55;;
15814;SDS011;8008;50.024;8.172;2023-05-20T03:55:00;2.50;;;2.30;;
15814;SDS011;8008;50.024;8.172;2023-05-20T03:57:28;3.17;;;2.75;;
15814;SDS011;8008;50.024;8.172;2023-05-20T03:59:57;3.17;;;2.60;;
15814;SDS011;8008;50.024;8.172;2023-05-20T04:02:30;2.83;;;2.50;;
15814;SDS011;8008;50.024;8.172;2023-05-20T04:04:58;2.63;;;2.42;;
15814;SDS011;8008;50.024;8.172;2023-05-20T04:07:27;3.53;;;2.67;;
15814;SDS011;8008;50.024;8.172;2023-05-20T04:09:57;2.90;;;2.67;;
15814;SDS011;8008;50.024;8.172;2023-05-20T04:12:25;3.38;;;2.65;;
15814;SDS011;8008;50.024;8.172;2023-05-20T04:14:56;3.00;;;2.70;;
15814;SDS011;8008;50.024;8.172;2023-05-20T04:17:28;5.85;;;2.65;;
15814;SDS011;8008;50.024;8.172;2023-05-20T04:19:57;3.60;;;2.63;;
15814;SDS011;8008;50.024;8.172;2023-05-20T04:22:25;2.85;;;2.33;;
15814;SDS011;8008;50.024;8.172;2023-05-20T04:24:53;2.78;;;2.47;;
15814;SDS011;8008;50.024;8.172;2023-05-20T04:27:23;2.72;;;2.50;;
15814;SDS011;8008;50.024;8.172;2023-05-20T04:29:51;2.70;;;2.50;;
15814;SDS011;8008;50.024;8.172;2023-05-20T04:32:20;3.00;;;2.70;;
15814;SDS011;8008;50.024;8.172;2023-05-20T04:34:49;4.55;;;2.58;;
15814;SDS011;8008;50.024;8.172;2023-05-20T04:37:16;3.80;;;2.63;;
15814;SDS011;8008;50.024;8.172;2023-05-20T04:39:45;3.95;;;2.47;;
15814;SDS011;8008;50.024;8.172;2023-05-20T04:42:13;3.90;;;2.47;;
15814;SDS011;8008;50.024;8.172;2023-05-20T04:44:44;4.32;;;2.58;;
15814;SDS011;8008;50.024;8.172;2023-05-20T04:47:13;2.75;;;2.50;;
15814;SDS011;8008;50.024;8.172;2023-05-20T04:49:41;2.78;;;2.58;;
15814;SDS011;8008;50.024;8.172;2023-05-20T04:52:11;4.85;;;2.88;;
15814;SDS011;8008;50.024;8.172;2023-05-20T04:54:39;3.67;;;2.53;;
15814;SDS011;8008;50.024;8.172;2023-05-20T04:57:08;3.53;;;2.80;;
15814;SDS011;8008;50.024;8.172;2023-05-20T04:59:36;2.60;;;2.40;;
15814;SDS011;8008;50.024;8.172;2023-05-20T05:02:05;3.22;;;2.60;;
15814;SDS011;8008;50.024;8.172;2023-05-20T05:04:33;4.07;;;3.03;;
15814;SDS011;8008;50.024;8.172;2023-05-20T05:07:01;3.13;;;2.83;;
15814;SDS011;8008;50.024;8.172;2023-05-20T05:09:31;3.35;;;3.00;;
15814;SDS011;8008;50.024;8.172;2023-05-20T05:12:00;3.78;;;2.80;;
15814;SDS011;8008;50.024;8.172;2023-05-20T05:14:28;3.45;;;2.97;;
15814;SDS011;8008;50.024;8.172;2023-05-20T05:16:56;4.78;;;2.75;;
15814;SDS011;8008;50.024;8.172;2023-05-20T05:19:26;3.70;;;2.78;;
15814;SDS011;8008;50.024;8.172;2023-05-20T05:21:54;4.65;;;2.80;;
15814;SDS011;8008;50.024;8.172;2023-05-20T05:24:22;3.25;;;2.70;;
15814;SDS011;8008;50.024;8.172;2023-05-20T05:26:52;4.30;;;3.10;;
15814;SDS011;8008;50.024;8.172;2023-05-20T05:29:20;3.67;;;2.88;;
15814;SDS011;8008;50.024;8.172;2023-05-20T05:31:48;3.63;;;3.05;;
15814;SDS011;8008;50.024;8.172;2023-05-20T05:34:17;3.72;;;2.92;;
15814;SDS011;8008;50.024;8.172;2023-05-20T05:36:46;3.03;;;2.72;;
15814;SDS011;8008;50.024;8.172;2023-05-20T05:39:14;3.30;;;2.78;;
15814;SDS011;8008;50.024;8.172;2023-05-20T05:41:43;4.15;;;2.80;;
15814;SDS011;8008;50.024;8.172;2023-05-20T05:44:11;4.20;;;2.97;;
15814;SDS011;8008;50.024;8.172;2023-05-20T05:46:40;4.53;;;3.10;;
15814;SDS011;8008;50.024;8.172;2023-05-20T05:49:09;4.35;;;3.03;;
15814;SDS011;8008;50.024;8.172;2023-05-20T05:51:37;5.35;;;2.83;;
15814;SDS011;8008;50.024;8.172;2023-05-20T05:54:06;4.38;;;3.40;;
15814;SDS011;8008;50.024;8.172;2023-05-20T05:56:34;5.78;;;2.97;;
15814;SDS011;8008;50.024;8.172;2023-05-20T05:59:02;3.10;;;2.80;;
15814;SDS011;8008;50.024;8.172;2023-05-20T06:01:31;3.83;;;2.90;;
15814;SDS011;8008;50.024;8.172;2023-05-20T06:03:59;3.58;;;2.90;;
15814;SDS011;8008;50.024;8.172;2023-05-20T06:06:29;3.53;;;2.88;;
15814;SDS011;8008;50.024;8.172;2023-05-20T06:08:57;4.50;;;3.40;;
15814;SDS011;8008;50.024;8.172;2023-05-20T06:11:27;4.10;;;2.95;;
15814;SDS011;8008;50.024;8.172;2023-05-20T06:13:55;3.45;;;3.15;;
15814;SDS011;8008;50.024;8.172;2023-05-20T06:16:23;4.43;;;3.03;;
15814;SDS011;8008;50.024;8.172;2023-05-20T06:18:51;4.05;;;2.92;;
15814;SDS011;8008;50.024;8.172;2023-05-20T06:21:22;4.90;;;3.30;;
15814;SDS011;8008;50.024;8.172;2023-05-20T06:23:50;6.57;;;3.45;;
15814;SDS011;8008;50.024;8.172;2023-05-20T06:26:18;5.28;;;3.40;;
15814;SDS011;8008;50.024;8.172;2023-05-20T06:28:47;4.25;;;3.20;;
15814;SDS011;8008;50.024;8.172;2023-05-20T06:31:16;4.22;;;3.10;;
15814;SDS011;8008;50.024;8.172;2023-05-20T06:33:44;3.80;;;3.40;;
15814;SDS011;8008;50.024;8.172;2023-05-20T06:36:13;3.78;;;3.38;;
15814;SDS011;8008;50.024;8.172;2023-05-20T06:38:41;4.55;;;3.20;;
15814;SDS011;8008;50.024;8.172;2023-05-20T06:41:11;3.88;;;3.15;;
15814;SDS011;8008;50.024;8.172;2023-05-20T06:43:39;4.30;;;3.60;;
15814;SDS011;8008;50.024;8.172;2023-05-20T06:46:28;3.67;;;3.30;;
15814;SDS011;8008;50.024;8.172;2023-05-20T06:49:03;4.43;;;3.30;;
15814;SDS011;8008;50.024;8.172;2023-05-20T06:51:31;4.38;;;3.70;;
15814;SDS011;8008;50.024;8.172;2023-05-20T06:53:59;5.20;;;3.60;;
15814;SDS011;8008;50.024;8.172;2023-05-20T06:56:29;4.97;;;3.70;;
15814;SDS011;8008;50.024;8.172;2023-05-20T06:58:57;3.67;;;3.35;;
15814;SDS011;8008;50.024;8.172;2023-05-20T07:01:26;6.13;;;3.60;;
15814;SDS011;8008;50.024;8.172;2023-05-20T07:03:56;3.80;;;3.40;;
15814;SDS011;8008;50.024;8.172;2023-05-20T07:06:24;4.10;;;3.70;;
15814;SDS011;8008;50.024;8.172;2023-05-20T07:08:52;4.50;;;3.88;;
15814;SDS011;8008;50.024;8.172;2023-05-20T07:11:20;4.55;;;4.07;;
15814;SDS011;8008;50.024;8.172;2023-05-20T07:13:48;5.43;;;3.83;;
15814;SDS011;8008;50.024;8.172;2023-05-20T07:16:16;4.30;;;3.83;;
15814;SDS011;8008;50.024;8.172;2023-05-20T07:18:51;4.50;;;4.10;;
15814;SDS011;8008;50.024;8.172;2023-05-20T07:21:20;4.50;;;4.10;;
15814;SDS011;8008;50.024;8.172;2023-05-20T07:24:01;5.05;;;4.00;;
15814;SDS011;8008;50.024;8.172;2023-05-20T07:26:29;6.50;;;4.18;;
15814;SDS011;8008;50.024;8.172;2023-05-20T07:28:59;4.63;;;4.18;;
15814;SDS011;8008;50.024;8.172;2023-05-20T07:31:27;4.93;;;4.18;;
15814;SDS011;8008;50.024;8.172;2023-05-20T07:33:55;4.80;;;4.30;;
15814;SDS011;8008;50.024;8.172;2023-05-20T07:36:26;4.30;;;3.90;;
15814;SDS011;8008;50.024;8.172;2023-05-20T07:38:58;7.65;;;4.97;;
15814;SDS011;8008;50.024;8.172;2023-05-20T07:41:34;7.05;;;4.95;;
15814;SDS011;8008;50.024;8.172;2023-05-20T07:44:03;7.10;;;4.60;;
15814;SDS011;8008;50.024;8.172;2023-05-20T07:46:33;5.03;;;4.50;;
15814;SDS011;8008;50.024;8.172;2023-05-20T07:49:03;7.43;;;4.88;;
15814;SDS011;8008;50.024;8.172;2023-05-20T07:51:33;5.07;;;4.57;;
15814;SDS011;8008;50.024;8.172;2023-05-20T07:54:01;5.53;;;4.78;;
15814;SDS011;8008;50.024;8.172;2023-05-20T07:56:30;7.00;;;4.88;;
15814;SDS011;8008;50.024;8.172;2023-05-20T07:58:59;7.53;;;4.70;;
15814;SDS011;8008;50.024;8.172;2023-05-20T08:01:32;5.40;;;4.40;;
15814;SDS011;8008;50.024;8.172;2023-05-20T08:04:02;5.18;;;4.68;;
15814;SDS011;8008;50.024;8.172;2023-05-20T08:06:30;6.57;;;5.07;;
15814;SDS011;8008;50.024;8.172;2023-05-20T08:09:01;5.40;;;4.90;;
15814;SDS011;8008;50.024;8.172;2023-05-20T08:11:36;5.65;;;5.07;;
15814;SDS011;8008;50.024;8.172;2023-05-20T08:14:04;5.40;;;4.90;;
15814;SDS011;8008;50.024;8.172;2023-05-20T08:16:37;6.38;;;5.13;;
15814;SDS011;8008;50.024;8.172;2023-05-20T08:19:05;5.65;;;4.93;;
15814;SDS011;8008;50.024;8.172;2023-05-20T08:21:33;5.85;;;5.25;;
15814;SDS011;8008;50.024;8.172;2023-05-20T08:24:03;7.35;;;5.80;;
15814;SDS011;8008;50.024;8.172;2023-05-20T08:26:34;6.95;;;5.32;;
15814;SDS011;8008;50.024;8.172;2023-05-20T08:29:02;6.85;;;5.50;;
15814;SDS011;8008;50.024;8.172;2023-05-20T08:31:31;5.65;;;5.15;;
15814;SDS011;8008;50.024;8.172;2023-05-20T08:34:00;7.70;;;5.50;;
15814;SDS011;8008;50.024;8.172;2023-05-20T08:36:28;7.32;;;5.63;;
15814;SDS011;8008;50.024;8.172;2023-05-20T08:38:56;6.57;;;5.87;;
15814;SDS011;8008;50.024;8.172;2023-05-20T08:41:25;8.40;;;5.43;;
15814;SDS011;8008;50.024;8.172;2023-05-20T08:43:54;6.35;;;5.40;;
15814;SDS011;8008;50.024;8.172;2023-05-20T08:46:23;5.82;;;5.00;;
15814;SDS011;8008;50.024;8.172;2023-05-20T08:48:54;6.20;;;5.18;;
15814;SDS011;8008;50.024;8.172;2023-05-20T08:51:22;7.07;;;5.25;;
15814;SDS011;8008;50.024;8.172;2023-05-20T08:53:53;6.28;;;5.30;;
15814;SDS011;8008;50.024;8.172;2023-05-20T08:56:21;6.13;;;5.13;;
15814;SDS011;8008;50.024;8.172;2023-05-20T08:58:57;6.50;;;5.80;;
15814;SDS011;8008;50.024;8.172;2023-05-20T09:01:25;6.65;;;5.53;;
15814;SDS011;8008;50.024;8.172;2023-05-20T09:03:53;6.45;;;5.72;;
15814;SDS011;8008;50.024;8.172;2023-05-20T09:06:21;6.25;;;5.47;;
15814;SDS011;8008;50.024;8.172;2023-05-20T09:08:49;7.78;;;5.65;;
15814;SDS011;8008;50.024;8.172;2023-05-20T09:11:18;6.00;;;5.40;;
15814;SDS011;8008;50.024;8.172;2023-05-20T09:13:46;6.35;;;5.57;;
15814;SDS011;8008;50.024;8.172;2023-05-20T09:16:17;6.07;;;5.47;;
15814;SDS011;8008;50.024;8.172;2023-05-20T09:18:45;6.13;;;5.53;;
15814;SDS011;8008;50.024;8.172;2023-05-20T09:21:13;7.55;;;5.70;;
15814;SDS011;8008;50.024;8.172;2023-05-20T09:23:45;8.45;;;6.22;;
15814;SDS011;8008;50.024;8.172;2023-05-20T09:26:13;6.13;;;5.53;;
15814;SDS011;8008;50.024;8.172;2023-05-20T09:28:43;6.82;;;5.85;;
15814;SDS011;8008;50.024;8.172;2023-05-20T09:31:12;6.82;;;5.55;;
15814;SDS011;8008;50.024;8.172;2023-05-20T09:33:42;6.65;;;5.63;;
15814;SDS011;8008;50.024;8.172;2023-05-20T09:36:10;6.50;;;5.30;;
15814;SDS011;8008;50.024;8.172;2023-05-20T09:38:42;6.47;;;5.60;;
15814;SDS011;8008;50.024;8.172;2023-05-20T09:41:12;6.03;;;5.43;;
15814;SDS011;8008;50.024;8.172;2023-05-20T09:43:43;6.35;;;5.75;;
15814;SDS011;8008;50.024;8.172;2023-05-20T09:46:12;8.70;;;5.82;;
15814;SDS011;8008;50.024;8.172;2023-05-20T09:48:40;6.90;;;5.90;;
15814;SDS011;8008;50.024;8.172;2023-05-20T09:51:11;7.00;;;6.13;;
15814;SDS011;8008;50.024;8.172;2023-05-20T09:53:39;7.38;;;6.35;;
15814;SDS011;8008;50.024;8.172;2023-05-20T09:56:08;7.68;;;6.07;;
15814;SDS011;8008;50.024;8.172;2023-05-20T09:58:36;7.55;;;6.20;;
15814;SDS011;8008;50.024;8.172;2023-05-20T10:01:06;6.95;;;6.25;;
15814;SDS011;8008;50.024;8.172;2023-05-20T10:03:34;7.20;;;6.05;;
15814;SDS011;8008;50.024;8.172;2023-05-20T10:06:12;7.47;;;5.63;;
15814;SDS011;8008;50.024;8.172;2023-05-20T10:08:54;6.72;;;5.68;;
15814;SDS011;8008;50.024;8.172;2023-05-20T10:11:33;8.38;;;6.22;;
15814;SDS011;8008;50.024;8.172;2023-05-20T10:17:02;7.78;;;5.80;;
15814;SDS011;8008;50.024;8.172;2023-05-20T10:19:37;8.40;;;5.78;;
15814;SDS011;8008;50.024;8.172;2023-05-20T10:22:07;8.68;;;6.00;;
15814;SDS011;8008;50.024;8.172;2023-05-20T10:24:36;7.32;;;5.88;;
15814;SDS011;8008;50.024;8.172;2023-05-20T10:27:07;7.72;;;6.10;;
15814;SDS011;8008;50.024;8.172;2023-05-20T10:29:42;7.93;;;6.05;;
15814;SDS011;8008;50.024;8.172;2023-05-20T10:32:23;6.45;;;5.85;;
15814;SDS011;8008;50.024;8.172;2023-05-20T10:34:57;7.72;;;6.03;;
15814;SDS011;8008;50.024;8.172;2023-05-20T10:37:28;6.35;;;5.75;;
15814;SDS011;8008;50.024;8.172;2023-05-20T10:40:06;6.60;;;5.90;;
15814;SDS011;8008;50.024;8.172;2023-05-20T10:42:34;8.88;;;5.90;;
15814;SDS011;8008;50.024;8.172;2023-05-20T10:45:03;6.75;;;6.03;;
15814;SDS011;8008;50.024;8.172;2023-05-20T10:47:31;7.40;;;6.25;;
15814;SDS011;8008;50.024;8.172;2023-05-20T10:50:00;6.40;;;5.53;;
15814;SDS011;8008;50.024;8.172;2023-05-20T10:52:32;6.63;;;5.97;;
15814;SDS011;8008;50.024;8.172;2023-05-20T10:55:02;8.32;;;6.05;;
15814;SDS011;8008;50.024;8.172;2023-05-20T10:57:31;6.65;;;5.95;;
15814;SDS011;8008;50.024;8.172;2023-05-20T11:00:01;8.13;;;6.65;;
15814;SDS011;8008;50.024;8.172;2023-05-20T11:02:36;8.95;;;6.95;;
15814;SDS011;8008;50.024;8.172;2023-05-20T11:05:05;8.45;;;6.72;;
15814;SDS011;8008;50.024;8.172;2023-05-20T11:07:38;7.28;;;6.13;;
15814;SDS011;8008;50.024;8.172;2023-05-20T11:10:06;6.70;;;6.03;;
15814;SDS011;8008;50.024;8.172;2023-05-20T11:12:35;7.85;;;6.60;;
15814;SDS011;8008;50.024;8.172;2023-05-20T11:15:04;6.88;;;6.07;;
15814;SDS011;8008;50.024;8.172;2023-05-20T11:17:33;7.20;;;5.80;;
15814;SDS011;8008;50.024;8.172;2023-05-20T11:20:01;14.85;;;8.25;;
15814;SDS011;8008;50.024;8.172;2023-05-20T11:22:30;7.45;;;6.32;;
15814;SDS011;8008;50.024;8.172;2023-05-20T11:24:59;6.43;;;5.80;;
15814;SDS011;8008;50.024;8.172;2023-05-20T11:27:32;6.72;;;5.70;;
15814;SDS011;8008;50.024;8.172;2023-05-20T11:30:00;14.43;;;6.72;;
15814;SDS011;8008;50.024;8.172;2023-05-20T11:32:29;6.50;;;5.90;;
15814;SDS011;8008;50.024;8.172;2023-05-20T11:34:57;7.88;;;6.28;;
15814;SDS011;8008;50.024;8.172;2023-05-20T11:37:25;7.20;;;6.20;;
15814;SDS011;8008;50.024;8.172;2023-05-20T11:40:03;7.88;;;6.50;;
15814;SDS011;8008;50.024;8.172;2023-05-20T11:42:35;7.93;;;5.63;;
15814;SDS011;8008;50.024;8.172;2023-05-20T11:45:03;9.95;;;6.15;;
15814;SDS011;8008;50.024;8.172;2023-05-20T11:47:32;8.57;;;5.93;;
15814;SDS011;8008;50.024;8.172;2023-05-20T11:50:00;6.85;;;5.78;;
15814;SDS011;8008;50.024;8.172;2023-05-20T11:52:28;8.55;;;5.85;;
15814;SDS011;8008;50.024;8.172;2023-05-20T11:54:59;6.65;;;5.88;;
15814;SDS011;8008;50.024;8.172;2023-05-20T11:57:28;6.00;;;5.40;;
15814;SDS011;8008;50.024;8.172;2023-05-20T11:59:57;6.70;;;6.00;;
15814;SDS011;8008;50.024;8.172;2023-05-20T12:02:25;7.95;;;5.97;;
15814;SDS011;8008;50.024;8.172;2023-05-20T12:04:53;7.35;;;6.20;;
15814;SDS011;8008;50.024;8.172;2023-05-20T12:07:21;8.15;;;6.35;;
15814;SDS011;8008;50.024;8.172;2023-05-20T12:09:49;7.05;;;6.35;;
15814;SDS011;8008;50.024;8.172;2023-05-20T12:12:17;6.70;;;6.10;;
15814;SDS011;8008;50.024;8.172;2023-05-20T12:14:46;6.63;;;5.85;;
15814;SDS011;8008;50.024;8.172;2023-05-20T12:17:14;6.25;;;5.65;;
15814;SDS011;8008;50.024;8.172;2023-05-20T12:19:42;6.63;;;5.93;;
15814;SDS011;8008;50.024;8.172;2023-05-20T12:22:11;6.50;;;5.90;;
15814;SDS011;8008;50.024;8.172;2023-05-20T12:24:39;7.38;;;5.85;;
15814;SDS011;8008;50.024;8.172;2023-05-20T12:27:06;6.43;;;5.55;;
15814;SDS011;8008;50.024;8.172;2023-05-20T12:29:35;6.90;;;5.57;;
15814;SDS011;8008;50.024;8.172;2023-05-20T12:32:05;6.95;;;5.53;;
15814;SDS011;8008;50.024;8.172;2023-05-20T12:34:33;6.57;;;5.97;;
15814;SDS011;8008;50.024;8.172;2023-05-20T12:37:01;6.55;;;5.85;;
15814;SDS011;8008;50.024;8.172;2023-05-20T12:39:29;8.05;;;5.78;;
15814;SDS011;8008;50.024;8.172;2023-05-20T12:41:57;7.35;;;5.72;;
15814;SDS011;8008;50.024;8.172;2023-05-20T12:44:25;6.15;;;5.55;;
15814;SDS011;8008;50.024;8.172;2023-05-20T12:46:53;6.10;;;5.50;;
15814;SDS011;8008;50.024;8.172;2023-05-20T12:49:23;6.40;;;5.68;;
15814;SDS011;8008;50.024;8.172;2023-05-20T12:51:51;6.95;;;5.97;;
15814;SDS011;8008;50.024;8.172;2023-05-20T12:54:19;6.35;;;5.65;;
15814;SDS011;8008;50.024;8.172;2023-05-20T12:56:47;6.18;;;5.60;;
15814;SDS011;8008;50.024;8.172;2023-05-20T12:59:15;6.13;;;5.57;;
15814;SDS011;8008;50.024;8.172;2023-05-20T13:01:43;6.32;;;5.72;;
15814;SDS011;8008;50.024;8.172;2023-05-20T13:04:10;6.18;;;5.55;;
15814;SDS011;8008;50.024;8.172;2023-05-20T13:06:40;5.88;;;4.90;;
15814;SDS011;8008;50.024;8.172;2023-05-20T13:09:08;5.70;;;5.20;;
15814;SDS011;8008;50.024;8.172;2023-05-20T13:11:36;6.35;;;5.60;;
15814;SDS011;8008;50.024;8.172;2023-05-20T13:14:04;6.32;;;5.72;;
15814;SDS011;8008;50.024;8.172;2023-05-20T13:16:32;6.25;;;5.68;;
15814;SDS011;8008;50.024;8.172;2023-05-20T13:19:00;6.03;;;5.53;;
15814;SDS011;8008;50.024;8.172;2023-05-20T13:21:28;5.80;;;5.22;;
15814;SDS011;8008;50.024;8.172;2023-05-20T13:23:58;8.23;;;5.88;;
15814;SDS011;8008;50.024;8.172;2023-05-20T13:26:27;6.25;;;5.65;;
15814;SDS011;8008;50.024;8.172;2023-05-20T13:28:55;6.65;;;5.85;;
15814;SDS011;8008;50.024;8.172;2023-05-20T13:31:23;9.15;;;5.78;;
15814;SDS011;8008;50.024;8.172;2023-05-20T13:33:51;7.10;;;5.97;;
15814;SDS011;8008;50.024;8.172;2023-05-20T13:36:20;7.05;;;5.97;;
15814;SDS011;8008;50.024;8.172;2023-05-20T13:38:48;7.07;;;6.43;;
15814;SDS011;8008;50.024;8.172;2023-05-20T13:41:18;6.57;;;5.97;;
15814;SDS011;8008;50.024;8.172;2023-05-20T13:43:45;7.13;;;6.07;;
15814;SDS011;8008;50.024;8.172;2023-05-20T13:46:15;6.93;;;6.22;;
15814;SDS011;8008;50.024;8.172;2023-05-20T13:48:43;7.57;;;6.78;;
15814;SDS011;8008;50.024;8.172;2023-05-20T13:51:11;7.40;;;6.68;;
15814;SDS011;8008;50.024;8.172;2023-05-20T13:53:39;6.25;;;5.65;;
15814;SDS011;8008;50.024;8.172;2023-05-20T13:56:07;9.90;;;6.13;;
15814;SDS011;8008;50.024;8.172;2023-05-20T13:58:36;6.35;;;5.65;;
15814;SDS011;8008;50.024;8.172;2023-05-20T14:01:04;6.85;;;6.18;;
15814;SDS011;8008;50.024;8.172;2023-05-20T14:03:32;6.03;;;5.53;;
15814;SDS011;8008;50.024;8.172;2023-05-20T14:06:02;6.60;;;5.95;;
15814;SDS011;8008;50.024;8.172;2023-05-20T14:08:31;6.63;;;5.55;;
15814;SDS011;8008;50.024;8.172;2023-05-20T14:10:59;6.40;;;5.80;;
15814;SDS011;8008;50.024;8.172;2023-05-20T14:13:27;6.65;;;5.95;;
15814;SDS011;8008;50.024;8.172;2023-05-20T14:15:56;7.55;;;5.70;;
15814;SDS011;8008;50.024;8.172;2023-05-20T14:18:24;6.65;;;5.75;;
15814;SDS011;8008;50.024;8.172;2023-05-20T14:20:52;6.53;;;5.47;;
15814;SDS011;8008;50.024;8.172;2023-05-20T14:23:21;9.98;;;6.03;;
15814;SDS011;8008;50.024;8.172;2023-05-20T14:25:49;7.32;;;5.90;;
15814;SDS011;8008;50.024;8.172;2023-05-20T14:28:17;7.95;;;7.00;;
15814;SDS011;8008;50.024;8.172;2023-05-20T14:30:45;7.20;;;6.50;;
15814;SDS011;8008;50.024;8.172;2023-05-20T14:33:14;7.45;;;6.70;;
15814;SDS011;8008;50.024;8.172;2023-05-20T14:35:42;8.00;;;7.30;;
15814;SDS011;8008;50.024;8.172;2023-05-20T14:38:10;7.20;;;6.50;;
15814;SDS011;8008;50.024;8.172;2023-05-20T14:40:38;6.63;;;5.90;;
15814;SDS011;8008;50.024;8.172;2023-05-20T14:43:06;6.43;;;5.82;;
15814;SDS011;8008;50.024;8.172;2023-05-20T14:45:34;6.70;;;6.10;;
15814;SDS011;8008;50.024;8.172;2023-05-20T14:48:02;7.10;;;6.40;;
15814;SDS011;8008;50.024;8.172;2023-05-20T14:50:31;6.70;;;6.10;;
15814;SDS011;8008;50.024;8.172;2023-05-20T14:52:59;8.38;;;7.45;;
15814;SDS011;8008;50.024;8.172;2023-05-20T14:55:27;9.85;;;8.05;;
15814;SDS011;8008;50.024;8.172;2023-05-20T14:57:55;6.38;;;5.78;;
15814;SDS011;8008;50.024;8.172;2023-05-20T15:00:23;7.13;;;6.50;;
15814;SDS011;8008;50.024;8.172;2023-05-20T15:02:51;6.57;;;6.07;;
15814;SDS011;8008;50.024;8.172;2023-05-20T15:05:19;6.70;;;6.10;;
15814;SDS011;8008;50.024;8.172;2023-05-20T15:07:49;6.18;;;5.68;;
15814;SDS011;8008;50.024;8.172;2023-05-20T15:10:17;6.32;;;5.80;;
15814;SDS011;8008;50.024;8.172;2023-05-20T15:12:45;6.03;;;5.45;;
15814;SDS011;8008;50.024;8.172;2023-05-20T15:15:12;6.55;;;5.93;;
15814;SDS011;8008;50.024;8.172;2023-05-20T15:17:40;6.63;;;5.95;;
15814;SDS011;8008;50.024;8.172;2023-05-20T15:20:09;6.30;;;5.70;;
15814;SDS011;8008;50.024;8.172;2023-05-20T15:22:37;6.80;;;6.20;;
15814;SDS011;8008;50.024;8.172;2023-05-20T15:25:08;5.70;;;5.20;;
15814;SDS011;8008;50.024;8.172;2023-05-20T15:27:36;5.97;;;5.47;;
15814;SDS011;8008;50.024;8.172;2023-05-20T15:30:04;6.38;;;5.70;;
15814;SDS011;8008;50.024;8.172;2023-05-20T15:32:33;6.95;;;6.32;;
15814;SDS011;8008;50.024;8.172;2023-05-20T15:35:01;6.45;;;5.88;;
15814;SDS011;8008;50.024;8.172;2023-05-20T15:37:29;6.45;;;5.85;;
15814;SDS011;8008;50.024;8.172;2023-05-20T15:39:57;7.88;;;5.97;;
15814;SDS011;8008;50.024;8.172;2023-05-20T15:42:26;6.40;;;5.90;;
15814;SDS011;8008;50.024;8.172;2023-05-20T15:44:54;6.93;;;6.32;;
15814;SDS011;8008;50.024;8.172;2023-05-20T15:47:22;7.40;;;6.40;;
15814;SDS011;8008;50.024;8.172;2023-05-20T15:49:50;7.22;;;6.47;;
15814;SDS011;8008;50.024;8.172;2023-05-20T15:52:19;6.90;;;6.30;;
15814;SDS011;8008;50.024;8.172;2023-05-20T15:54:47;6.60;;;6.00;;
15814;SDS011;8008;50.024;8.172;2023-05-20T15:57:15;7.10;;;6.40;;
15814;SDS011;8008;50.024;8.172;2023-05-20T15:59:44;7.38;;;6.68;;
15814;SDS011;8008;50.024;8.172;2023-05-20T16:02:12;7.55;;;6.85;;
15814;SDS011;8008;50.024;8.172;2023-05-20T16:04:40;8.48;;;6.60;;
15814;SDS011;8008;50.024;8.172;2023-05-20T16:07:08;6.63;;;6.00;;
15814;SDS011;8008;50.024;8.172;2023-05-20T16:09:36;8.43;;;7.63;;
15814;SDS011;8008;50.024;8.172;2023-05-20T16:12:04;9.25;;;7.38;;
15814;SDS011;8008;50.024;8.172;2023-05-20T16:14:32;10.25;;;7.10;;
15814;SDS011;8008;50.024;8.172;2023-05-20T16:17:02;9.95;;;7.10;;
15814;SDS011;8008;50.024;8.172;2023-05-20T16:19:30;7.90;;;7.20;;
15814;SDS011;8008;50.024;8.172;2023-05-20T16:21:58;7.25;;;6.55;;
15814;SDS011;8008;50.024;8.172;2023-05-20T16:24:26;7.45;;;6.75;;
15814;SDS011;8008;50.024;8.172;2023-05-20T16:26:54;7.43;;;6.68;;
15814;SDS011;8008;50.024;8.172;2023-05-20T16:29:22;7.85;;;7.05;;
15814;SDS011;8008;50.024;8.172;2023-05-20T16:31:50;7.30;;;6.50;;
15814;SDS011;8008;50.024;8.172;2023-05-20T16:34:19;7.50;;;6.75;;
15814;SDS011;8008;50.024;8.172;2023-05-20T16:36:47;7.78;;;6.97;;
15814;SDS011;8008;50.024;8.172;2023-05-20T16:39:15;7.35;;;6.65;;
15814;SDS011;8008;50.024;8.172;2023-05-20T16:41:43;7.20;;;6.55;;
15814;SDS011;8008;50.024;8.172;2023-05-20T16:44:11;8.52;;;7.72;;
15814;SDS011;8008;50.024;8.172;2023-05-20T16:46:39;8.35;;;7.25;;
15814;SDS011;8008;50.024;8.172;2023-05-20T16:49:07;8.25;;;7.45;;
15814;SDS011;8008;50.024;8.172;2023-05-20T16:51:36;8.38;;;7.53;;
15814;SDS011;8008;50.024;8.172;2023-05-20T16:54:04;8.20;;;7.30;;
15814;SDS011;8008;50.024;8.172;2023-05-20T16:56:33;8.35;;;7.55;;
15814;SDS011;8008;50.024;8.172;2023-05-20T16:59:01;8.77;;;7.15;;
15814;SDS011;8008;50.024;8.172;2023-05-20T17:01:30;8.88;;;7.28;;
15814;SDS011;8008;50.024;8.172;2023-05-20T17:03:58;8.00;;;7.13;;
15814;SDS011;8008;50.024;8.172;2023-05-20T17:06:26;9.40;;;7.38;;
15814;SDS011;8008;50.024;8.172;2023-05-20T17:09:00;8.57;;;7.63;;
15814;SDS011;8008;50.024;8.172;2023-05-20T17:11:29;21.80;;;13.57;;
15814;SDS011;8008;50.024;8.172;2023-05-20T17:13:57;10.80;;;9.10;;
15814;SDS011;8008;50.024;8.172;2023-05-20T17:16:25;8.60;;;7.70;;
15814;SDS011;8008;50.024;8.172;2023-05-20T17:18:53;8.80;;;7.90;;
15814;SDS011;8008;50.024;8.172;2023-05-20T17:21:22;10.77;;;7.85;;
15814;SDS011;8008;50.024;8.172;2023-05-20T17:23:50;8.90;;;7.25;;
15814;SDS011;8008;50.024;8.172;2023-05-20T17:26:19;10.52;;;8.13;;
15814;SDS011;8008;50.024;8.172;2023-05-20T17:28:48;9.40;;;7.57;;
15814;SDS011;8008;50.024;8.172;2023-05-20T17:31:16;9.30;;;8.07;;
15814;SDS011;8008;50.024;8.172;2023-05-20T17:33:44;8.32;;;7.53;;
15814;SDS011;8008;50.024;8.172;2023-05-20T17:36:12;9.10;;;7.75;;
15814;SDS011;8008;50.024;8.172;2023-05-20T17:38:41;8.05;;;7.25;;
15814;SDS011;8008;50.024;8.172;2023-05-20T17:41:09;9.43;;;7.80;;
15814;SDS011;8008;50.024;8.172;2023-05-20T17:43:38;8.55;;;7.50;;
15814;SDS011;8008;50.024;8.172;2023-05-20T17:46:06;8.73;;;7.82;;
15814;SDS011;8008;50.024;8.172;2023-05-20T17:48:34;10.35;;;8.25;;
15814;SDS011;8008;50.024;8.172;2023-05-20T17:51:02;7.90;;;7.10;;
15814;SDS011;8008;50.024;8.172;2023-05-20T17:53:31;9.75;;;7.70;;
15814;SDS011;8008;50.024;8.172;2023-05-20T17:55:59;8.70;;;7.78;;
15814;SDS011;8008;50.024;8.172;2023-05-20T17:58:27;9.90;;;7.93;;
15814;SDS011;8008;50.024;8.172;2023-05-20T18:00:57;9.57;;;7.88;;
15814;SDS011;8008;50.024;8.172;2023-05-20T18:03:26;9.02;;;7.65;;
15814;SDS011;8008;50.024;8.172;2023-05-20T18:05:55;8.45;;;7.47;;
15814;SDS011;8008;50.024;8.172;2023-05-20T18:08:23;8.48;;;7.65;;
15814;SDS011;8008;50.024;8.172;2023-05-20T18:10:51;8.45;;;7.65;;
15814;SDS011;8008;50.024;8.172;2023-05-20T18:13:19;8.82;;;7.93;;
15814;SDS011;8008;50.024;8.172;2023-05-20T18:15:47;9.48;;;7.93;;
15814;SDS011;8008;50.024;8.172;2023-05-20T18:18:16;8.27;;;7.43;;